createdAt,value
2019-01-09T00:01:45.533Z,3.17
2019-01-09T00:04:17.218Z,2.47
2019-01-09T00:06:49.412Z,3.70
2019-01-09T00:09:23.736Z,3.10
2019-01-09T00:11:55.455Z,2.77
2019-01-09T00:14:26.996Z,3.77
2019-01-09T00:16:58.644Z,3.83
2019-01-09T00:19:30.303Z,2.57
2019-01-09T00:22:01.991Z,2.10
2019-01-09T00:24:33.618Z,2.93
2019-01-09T00:27:05.181Z,3.37
2019-01-09T00:29:36.790Z,2.37
2019-01-09T00:32:08.522Z,1.93
2019-01-09T00:34:40.160Z,4.67
2019-01-09T00:37:11.894Z,2.90
2019-01-09T00:39:43.472Z,2.53
2019-01-09T00:42:14.999Z,4.50
2019-01-09T00:44:46.536Z,1.77
2019-01-09T00:47:18.104Z,2.17
2019-01-09T00:49:49.729Z,2.57
2019-01-09T00:52:21.267Z,2.63
2019-01-09T00:54:52.915Z,1.53
2019-01-09T00:57:24.498Z,3.73
2019-01-09T00:59:56.067Z,2.00
2019-01-09T01:03:28.373Z,2.13
2019-01-09T01:06:52.028Z,1.33
2019-01-09T01:10:41.109Z,2.27
2019-01-09T01:13:57.310Z,2.03
2019-01-09T01:17:39.475Z,4.07
2019-01-09T01:21:09.693Z,1.70
2019-01-09T01:25:10.058Z,1.60
2019-01-09T01:28:30.789Z,3.30
2019-01-09T01:31:52.527Z,1.93
2019-01-09T01:35:31.460Z,1.37
2019-01-09T01:39:17.097Z,3.33
2019-01-09T01:42:58.496Z,1.80
2019-01-09T01:46:20.553Z,3.43
2019-01-09T01:49:31.342Z,1.30
2019-01-09T01:53:30.605Z,1.10
2019-01-09T01:56:44.354Z,1.83
2019-01-09T01:59:29.940Z,4.10
2019-01-09T02:03:14.509Z,1.20
2019-01-09T02:06:13.455Z,4.07
2019-01-09T02:09:44.341Z,3.17
2019-01-09T02:13:24.861Z,1.87
2019-01-09T02:17:14.639Z,1.67
2019-01-09T02:20:16.379Z,1.63
2019-01-09T02:24:03.134Z,0.73
2019-01-09T02:27:37.589Z,20.17
2019-01-09T02:30:56.368Z,22.20
2019-01-09T02:33:27.978Z,12.90
2019-01-09T02:35:59.571Z,7.47
2019-01-09T02:38:31.264Z,2.43
2019-01-09T02:41:02.818Z,1.20
2019-01-09T02:43:34.382Z,1.37
2019-01-09T02:46:05.931Z,2.20
2019-01-09T02:48:37.579Z,1.43
2019-01-09T02:51:09.240Z,1.13
2019-01-09T02:53:40.887Z,1.43
2019-01-09T02:56:12.536Z,1.30
2019-01-09T02:58:44.102Z,2.40
2019-01-09T03:01:15.770Z,1.47
2019-01-09T03:03:47.349Z,2.77
2019-01-09T03:06:23.044Z,1.17
2019-01-09T03:08:52.240Z,0.90
2019-01-09T03:11:23.849Z,1.53
2019-01-09T03:13:56.571Z,3.33
2019-01-09T03:16:28.139Z,2.33
2019-01-09T03:18:59.677Z,1.77
2019-01-09T03:21:31.238Z,1.90
2019-01-09T03:24:02.792Z,2.60
2019-01-09T03:26:34.405Z,2.70
2019-01-09T03:29:06.022Z,2.37
2019-01-09T03:31:37.677Z,3.63
2019-01-09T03:34:09.257Z,2.93
2019-01-09T03:36:40.828Z,2.30
2019-01-09T03:39:12.378Z,2.33
2019-01-09T03:41:43.985Z,2.17
2019-01-09T03:44:15.559Z,1.10
2019-01-09T03:46:47.204Z,1.63
2019-01-09T03:49:18.788Z,1.63
2019-01-09T03:51:50.416Z,1.90
2019-01-09T03:54:22.061Z,1.10
2019-01-09T03:56:53.662Z,1.50
2019-01-09T03:59:25.202Z,1.27
2019-01-09T04:01:56.765Z,0.67
2019-01-09T04:04:28.424Z,1.00
2019-01-09T04:07:00.061Z,1.47
2019-01-09T04:09:31.626Z,1.27
2019-01-09T04:12:03.240Z,1.03
2019-01-09T04:14:34.798Z,2.80
2019-01-09T04:17:06.346Z,2.07
2019-01-09T04:19:37.947Z,1.67
2019-01-09T04:22:09.494Z,1.70
2019-01-09T04:24:41.113Z,2.43
2019-01-09T04:27:12.662Z,1.33
2019-01-09T04:29:44.292Z,1.57
2019-01-09T04:32:15.860Z,1.80
2019-01-09T04:34:47.413Z,1.53
2019-01-09T04:37:18.992Z,2.40
2019-01-09T04:39:50.575Z,2.40
2019-01-09T04:42:22.141Z,1.07
2019-01-09T04:44:53.730Z,1.03
2019-01-09T04:47:25.286Z,2.10
2019-01-09T04:49:56.837Z,7.90
2019-01-09T04:52:28.454Z,2.10
2019-01-09T04:55:00.032Z,1.30
2019-01-09T04:57:31.700Z,1.80
2019-01-09T05:00:03.279Z,3.80
2019-01-09T05:02:36.038Z,3.00
2019-01-09T05:05:07.779Z,2.73
2019-01-09T05:07:39.950Z,4.00
2019-01-09T05:10:11.616Z,2.77
2019-01-09T05:12:43.861Z,2.10
2019-01-09T05:15:15.490Z,2.27
2019-01-09T05:17:47.073Z,5.40
2019-01-09T05:20:18.822Z,2.10
2019-01-09T05:22:50.393Z,3.60
2019-01-09T05:25:21.958Z,3.20
2019-01-09T05:27:53.866Z,4.20
2019-01-09T05:30:25.525Z,7.37
2019-01-09T05:32:57.214Z,8.13
2019-01-09T05:35:28.824Z,9.30
2019-01-09T05:38:00.499Z,7.17
2019-01-09T05:40:32.140Z,5.60
2019-01-09T05:43:31.842Z,2.37
2019-01-09T05:46:04.193Z,4.77
2019-01-09T05:48:35.777Z,3.50
2019-01-09T05:51:07.483Z,2.87
2019-01-09T05:53:39.050Z,1.67
2019-01-09T05:56:10.885Z,3.47
2019-01-09T05:58:42.473Z,1.63
2019-01-09T06:01:14.131Z,3.10
2019-01-09T06:03:45.880Z,1.23
2019-01-09T06:06:17.788Z,1.40
2019-01-09T06:08:49.437Z,1.13
2019-01-09T06:11:22.416Z,1.40
2019-01-09T06:13:54.075Z,1.00
2019-01-09T06:16:25.703Z,1.50
2019-01-09T06:18:57.349Z,1.10
2019-01-09T06:21:29.079Z,1.70
2019-01-09T06:24:00.697Z,1.43
2019-01-09T06:26:32.348Z,1.73
2019-01-09T06:29:04.024Z,1.50
2019-01-09T06:31:35.620Z,1.63
2019-01-09T06:34:10.703Z,2.33
2019-01-09T06:36:42.560Z,2.93
2019-01-09T06:39:14.350Z,2.67
2019-01-09T06:41:45.969Z,1.93
2019-01-09T06:44:17.632Z,2.97
2019-01-09T06:46:49.411Z,1.83
2019-01-09T06:49:20.997Z,3.07
2019-01-09T06:51:52.697Z,2.93
2019-01-09T06:54:24.297Z,2.70
2019-01-09T06:56:56.133Z,3.10
2019-01-09T06:59:27.831Z,3.07
2019-01-09T07:01:59.466Z,4.33
2019-01-09T07:04:31.183Z,3.07
2019-01-09T07:07:02.911Z,3.20
2019-01-09T07:09:34.551Z,3.80
2019-01-09T07:12:06.152Z,5.20
2019-01-09T07:14:37.874Z,4.43
2019-01-09T07:17:09.519Z,4.67
2019-01-09T07:19:41.245Z,4.90
2019-01-09T07:22:12.867Z,6.57
2019-01-09T07:24:44.710Z,6.03
2019-01-09T07:27:16.312Z,7.33
2019-01-09T07:29:47.978Z,10.17
2019-01-09T07:32:19.577Z,7.83
2019-01-09T07:34:51.263Z,8.27
2019-01-09T07:37:22.850Z,9.07
2019-01-09T07:39:54.550Z,8.20
2019-01-09T07:42:26.202Z,9.30
2019-01-09T07:44:57.814Z,8.60
2019-01-09T07:47:29.518Z,11.63
2019-01-09T07:50:01.439Z,12.10
2019-01-09T07:52:33.108Z,11.90
2019-01-09T07:55:04.804Z,10.43
2019-01-09T07:57:36.396Z,12.87
2019-01-09T08:00:10.714Z,11.70
2019-01-09T08:02:42.377Z,10.80
2019-01-09T08:05:14.005Z,15.97
2019-01-09T08:07:53.603Z,13.23
2019-01-09T08:10:19.300Z,14.33
2019-01-09T08:12:50.914Z,17.90
2019-01-09T08:15:22.500Z,14.07
2019-01-09T08:17:54.059Z,11.07
2019-01-09T08:20:25.713Z,9.77
2019-01-09T08:22:57.419Z,11.00
2019-01-09T08:25:29.098Z,12.13
2019-01-09T08:28:00.730Z,9.37
2019-01-09T08:30:32.414Z,11.90
2019-01-09T08:33:04.370Z,10.53
2019-01-09T08:35:36.008Z,8.60
2019-01-09T08:38:07.581Z,10.30
2019-01-09T08:40:39.348Z,15.90
2019-01-09T08:43:10.957Z,15.47
2019-01-09T08:45:42.555Z,10.80
2019-01-09T08:48:14.227Z,9.70
2019-01-09T08:50:45.849Z,11.10
2019-01-09T08:53:17.421Z,12.27
2019-01-09T08:55:48.989Z,12.53
2019-01-09T08:58:20.743Z,11.57
2019-01-09T09:00:52.360Z,8.33
2019-01-09T09:03:23.954Z,11.77
2019-01-09T09:05:55.539Z,10.63
2019-01-09T09:08:27.437Z,9.93
2019-01-09T09:10:59.090Z,10.60
2019-01-09T09:13:41.126Z,12.37
2019-01-09T09:16:13.356Z,14.93
2019-01-09T09:18:44.963Z,13.90
2019-01-09T09:21:16.592Z,10.43
2019-01-09T09:23:48.180Z,9.53
2019-01-09T09:26:20.824Z,14.50
2019-01-09T09:28:52.506Z,16.00
2019-01-09T09:35:00.743Z,13.60
2019-01-09T09:37:37.970Z,17.00
2019-01-09T09:40:24.030Z,21.33
2019-01-09T09:43:04.670Z,17.27
2019-01-09T09:45:38.245Z,19.60
2019-01-09T09:48:09.901Z,19.17
2019-01-09T09:50:43.914Z,21.37
2019-01-09T09:53:16.696Z,18.83
2019-01-09T09:55:48.281Z,18.50
2019-01-09T09:58:19.912Z,25.07
2019-01-09T10:00:51.472Z,20.10
2019-01-09T10:03:23.082Z,45.17
2019-01-09T10:05:54.735Z,47.83
2019-01-09T10:08:29.446Z,56.33
2019-01-09T10:10:59.741Z,66.37
2019-01-09T10:13:31.395Z,69.37
2019-01-09T10:16:02.996Z,64.93
2019-01-09T10:18:34.686Z,56.57
2019-01-09T10:21:06.758Z,39.13
2019-01-09T10:23:38.457Z,36.67
2019-01-09T10:26:10.159Z,37.83
2019-01-09T10:28:41.746Z,41.40
2019-01-09T10:31:13.364Z,47.13
2019-01-09T10:33:44.908Z,45.10
2019-01-09T10:36:16.649Z,49.53
2019-01-09T10:38:48.326Z,41.67
2019-01-09T10:41:19.900Z,42.80
2019-01-09T10:43:51.454Z,39.00
2019-01-09T10:46:23.173Z,43.40
2019-01-09T10:48:54.912Z,32.53
2019-01-09T10:51:26.767Z,36.27
2019-01-09T10:53:58.382Z,37.13
2019-01-09T10:56:29.983Z,30.23
2019-01-09T10:59:01.580Z,27.97
2019-01-09T11:01:33.218Z,29.80
2019-01-09T11:04:04.772Z,44.07
2019-01-09T11:06:36.417Z,45.10
2019-01-09T11:09:09.635Z,49.20
2019-01-09T11:11:41.204Z,51.30
2019-01-09T11:14:12.785Z,42.27
2019-01-09T11:16:44.347Z,39.43
2019-01-09T11:19:16.006Z,39.27
2019-01-09T11:21:47.558Z,42.80
2019-01-09T11:24:19.122Z,31.17
2019-01-09T11:26:50.718Z,40.10
2019-01-09T11:29:22.370Z,30.00
2019-01-09T11:31:53.979Z,35.50
2019-01-09T11:34:25.761Z,34.97
2019-01-09T11:36:57.402Z,37.27
2019-01-09T11:39:29.103Z,38.20
2019-01-09T11:42:00.787Z,27.67
2019-01-09T11:44:32.396Z,20.83
2019-01-09T11:47:04.155Z,26.50
2019-01-09T11:49:35.821Z,21.87
2019-01-09T11:52:07.506Z,31.20
2019-01-09T11:54:39.197Z,30.10
2019-01-09T11:57:10.917Z,30.10
2019-01-09T11:59:42.495Z,26.83
2019-01-09T12:02:21.815Z,37.90
2019-01-09T12:04:48.084Z,47.50
2019-01-09T12:07:19.670Z,56.67
2019-01-09T12:09:51.246Z,144.10
2019-01-09T12:12:22.949Z,126.03
2019-01-09T12:14:54.572Z,74.07
2019-01-09T12:17:26.234Z,54.50
2019-01-09T12:19:57.896Z,51.60
2019-01-09T12:22:29.473Z,37.63
2019-01-09T12:25:01.194Z,33.57
2019-01-09T12:27:32.853Z,31.80
2019-01-09T12:30:05.604Z,31.87
2019-01-09T12:32:37.201Z,38.60
2019-01-09T12:35:09.144Z,30.53
2019-01-09T12:37:40.844Z,37.90
2019-01-09T12:40:12.830Z,30.57
2019-01-09T12:42:54.574Z,36.43
2019-01-09T12:45:26.177Z,27.23
2019-01-09T12:47:57.749Z,29.73
2019-01-09T12:50:29.333Z,32.20
2019-01-09T12:53:00.895Z,27.13
2019-01-09T12:55:32.491Z,32.57
2019-01-09T12:58:04.135Z,29.37
2019-01-09T13:00:35.711Z,27.73
2019-01-09T13:03:07.409Z,31.53
2019-01-09T13:05:39.207Z,29.83
2019-01-09T13:08:10.818Z,29.70
2019-01-09T13:10:42.426Z,36.80
2019-01-09T13:13:14.159Z,29.90
2019-01-09T13:15:45.846Z,31.80
2019-01-09T13:18:17.417Z,40.90
2019-01-09T13:20:49.877Z,36.10
2019-01-09T13:23:21.502Z,34.10
2019-01-09T13:25:53.071Z,46.13
2019-01-09T13:28:24.663Z,48.77
2019-01-09T13:30:56.238Z,47.83
2019-01-09T13:33:27.855Z,47.90
2019-01-09T13:35:59.430Z,36.17
2019-01-09T13:38:31.022Z,38.00
2019-01-09T13:41:02.656Z,43.73
2019-01-09T13:43:34.239Z,51.97
2019-01-09T13:46:06.087Z,55.10
2019-01-09T13:48:37.815Z,38.63
2019-01-09T13:51:09.665Z,41.20
2019-01-09T13:53:41.254Z,40.03
2019-01-09T13:56:12.867Z,47.20
2019-01-09T13:58:44.474Z,50.33
2019-01-09T14:01:16.056Z,56.20
2019-01-09T14:03:49.117Z,57.33
2019-01-09T14:06:24.902Z,60.77
2019-01-09T14:08:56.581Z,64.23
2019-01-09T14:11:28.206Z,52.10
2019-01-09T14:14:00.003Z,48.63
2019-01-09T14:16:31.581Z,52.83
2019-01-09T14:19:03.215Z,47.10
2019-01-09T14:21:34.913Z,42.73
2019-01-09T14:24:06.661Z,56.23
2019-01-09T14:26:38.235Z,61.60
2019-01-09T14:29:09.945Z,67.53
2019-01-09T14:31:41.599Z,66.40
2019-01-09T14:34:13.217Z,61.57
2019-01-09T14:36:44.838Z,40.77
2019-01-09T14:39:16.524Z,50.40
2019-01-09T14:41:48.053Z,47.33
2019-01-09T14:44:19.716Z,41.87
2019-01-09T14:46:51.524Z,39.83
2019-01-09T14:49:23.101Z,41.40
2019-01-09T14:51:54.840Z,44.97
2019-01-09T14:54:26.523Z,45.20
2019-01-09T14:56:58.251Z,37.27
2019-01-09T14:59:30.029Z,42.87
2019-01-09T15:02:01.690Z,47.43
2019-01-09T15:04:33.335Z,58.77
2019-01-09T15:07:04.987Z,72.23
2019-01-09T15:09:36.633Z,62.20
2019-01-09T15:12:08.329Z,59.33
2019-01-09T15:14:39.986Z,53.63
2019-01-09T15:17:11.826Z,57.90
2019-01-09T15:19:43.403Z,39.93
2019-01-09T15:22:15.001Z,34.23
2019-01-09T15:24:46.859Z,34.33
2019-01-09T15:27:18.495Z,40.50
2019-01-09T15:29:50.163Z,37.53
2019-01-09T15:32:21.803Z,39.20
2019-01-09T15:34:53.443Z,35.10
2019-01-09T15:37:25.178Z,45.30
2019-01-09T15:40:05.218Z,37.40
2019-01-09T15:42:30.744Z,50.47
2019-01-09T15:45:09.843Z,43.10
2019-01-09T15:47:41.848Z,36.93
2019-01-09T15:50:16.945Z,38.40
2019-01-09T15:52:49.347Z,45.63
2019-01-09T15:55:21.267Z,48.07
2019-01-09T15:57:54.853Z,47.53
2019-01-09T16:00:37.206Z,52.53
2019-01-09T16:03:09.268Z,50.07
2019-01-09T16:05:41.056Z,55.07
2019-01-09T16:08:14.182Z,44.60
2019-01-09T16:10:52.269Z,44.37
2019-01-09T16:13:23.945Z,38.70
2019-01-09T16:15:55.616Z,43.17
2019-01-09T16:18:27.280Z,50.47
2019-01-09T16:20:58.936Z,49.70
2019-01-09T16:23:31.694Z,45.70
2019-01-09T16:26:03.553Z,48.50
2019-01-09T16:28:35.364Z,53.47
2019-01-09T16:31:41.126Z,54.53
2019-01-09T16:34:14.393Z,63.33
2019-01-09T16:36:46.046Z,61.23
2019-01-09T16:39:17.697Z,71.67
2019-01-09T16:41:50.417Z,75.63
2019-01-09T16:44:22.425Z,67.37
2019-01-09T16:46:54.383Z,68.87
2019-01-09T16:49:28.493Z,78.10
2019-01-09T16:52:00.430Z,77.03
2019-01-09T16:54:32.261Z,76.43
2019-01-09T16:57:04.060Z,78.83
2019-01-09T16:59:35.969Z,72.43
2019-01-09T17:02:07.863Z,69.23
2019-01-09T17:04:39.501Z,89.93
2019-01-09T17:07:11.312Z,81.33
2019-01-09T17:09:43.281Z,86.90
2019-01-09T17:12:17.294Z,86.93
2019-01-09T17:14:49.102Z,84.10
2019-01-09T17:17:20.905Z,72.50
2019-01-09T17:19:55.824Z,81.20
2019-01-09T17:22:30.800Z,78.40
2019-01-09T17:25:02.788Z,80.13
2019-01-09T17:27:37.698Z,92.97
2019-01-09T17:30:17.685Z,91.57
2019-01-09T17:32:49.581Z,93.43
2019-01-09T17:35:23.825Z,80.37
2019-01-09T17:37:57.224Z,80.07
2019-01-09T17:40:28.902Z,94.33
2019-01-09T17:43:03.757Z,88.63
2019-01-09T17:45:35.669Z,91.33
2019-01-09T17:48:10.583Z,88.33
2019-01-09T17:50:42.761Z,85.90
2019-01-09T17:53:14.508Z,91.13
2019-01-09T17:55:46.266Z,96.73
2019-01-09T17:58:18.378Z,94.80
2019-01-09T18:00:53.753Z,99.67
2019-01-09T18:03:25.581Z,104.77
2019-01-09T18:05:57.374Z,97.57
2019-01-09T18:08:29.371Z,92.27
2019-01-09T18:11:01.039Z,98.43
2019-01-09T18:13:33.003Z,96.63
2019-01-09T18:16:04.746Z,93.97
2019-01-09T18:18:36.448Z,99.07
2019-01-09T18:21:08.373Z,102.60
2019-01-09T18:23:40.056Z,104.40
2019-01-09T18:26:11.699Z,99.90
2019-01-09T18:28:43.543Z,101.13
2019-01-09T18:32:07.254Z,97.53
2019-01-09T18:35:29.140Z,91.53
2019-01-09T18:38:39.874Z,98.97
2019-01-09T18:42:22.912Z,95.13
2019-01-09T18:45:39.951Z,106.20
2019-01-09T18:49:02.448Z,104.70
2019-01-09T18:52:45.169Z,103.97
2019-01-09T18:55:30.866Z,99.67
2019-01-09T18:58:02.583Z,106.20
2019-01-09T19:00:34.224Z,100.07
2019-01-09T19:03:06.089Z,92.83
2019-01-09T19:05:37.921Z,103.00
2019-01-09T19:08:09.914Z,107.73
2019-01-09T19:10:41.722Z,114.90
2019-01-09T19:13:13.614Z,116.10
2019-01-09T19:15:45.752Z,123.73
2019-01-09T19:18:17.766Z,122.30
2019-01-09T19:21:02.166Z,113.10
2019-01-09T19:23:33.957Z,108.20
2019-01-09T19:26:05.671Z,120.83
2019-01-09T19:28:37.457Z,119.70
2019-01-09T19:31:11.879Z,113.60
2019-01-09T19:33:43.649Z,152.07
2019-01-09T19:36:15.463Z,116.83
2019-01-09T19:38:47.179Z,114.20
2019-01-09T19:41:19.070Z,106.40
2019-01-09T19:43:51.082Z,103.43
2019-01-09T19:46:22.900Z,107.63
2019-01-09T19:48:54.973Z,100.67
2019-01-09T19:51:26.606Z,100.03
2019-01-09T19:53:58.430Z,88.27
2019-01-09T19:56:30.241Z,103.13
2019-01-09T19:59:02.011Z,105.37
2019-01-09T20:01:33.784Z,96.43
2019-01-09T20:04:05.568Z,110.13
2019-01-09T20:06:44.993Z,100.43
2019-01-09T20:09:18.150Z,112.33
2019-01-09T20:11:50.488Z,96.67
2019-01-09T20:14:22.364Z,104.03
2019-01-09T20:16:54.228Z,88.43
2019-01-09T20:19:25.948Z,88.57
2019-01-09T20:21:58.464Z,91.37
2019-01-09T20:24:30.305Z,100.67
2019-01-09T20:27:02.033Z,91.50
2019-01-09T20:29:34.726Z,99.27
2019-01-09T20:32:06.524Z,101.67
2019-01-09T20:34:38.369Z,93.53
2019-01-09T20:37:10.382Z,103.47
2019-01-09T20:39:42.246Z,102.33
2019-01-09T20:42:13.994Z,99.13
2019-01-09T20:44:45.908Z,104.03
2019-01-09T20:47:17.725Z,113.43
2019-01-09T20:49:51.142Z,121.47
2019-01-09T20:52:25.966Z,115.67
2019-01-09T20:54:57.681Z,129.53
2019-01-09T20:57:29.403Z,117.60
2019-01-09T21:00:01.225Z,123.80
2019-01-09T21:02:33.407Z,113.67
2019-01-09T21:05:11.156Z,104.83
2019-01-09T21:07:42.967Z,119.20
2019-01-09T21:10:14.979Z,112.97
2019-01-09T21:12:46.698Z,106.70
2019-01-09T21:15:18.468Z,109.07
2019-01-09T21:17:50.277Z,110.63
2019-01-09T21:20:22.580Z,102.20
2019-01-09T21:22:54.299Z,109.50
2019-01-09T21:25:25.969Z,112.40
2019-01-09T21:27:57.719Z,103.97
2019-01-09T21:30:29.505Z,103.90
2019-01-09T21:33:01.388Z,104.63
2019-01-09T21:36:11.661Z,107.77
2019-01-09T21:38:53.690Z,104.30
2019-01-09T21:41:30.188Z,99.67
2019-01-09T21:44:16.165Z,101.33
2019-01-09T21:46:47.294Z,100.67
2019-01-09T21:49:19.165Z,110.80
2019-01-09T21:51:50.803Z,101.13
2019-01-09T21:54:32.643Z,101.30
2019-01-09T21:57:09.407Z,101.20
2019-01-09T21:59:41.164Z,95.40
2019-01-09T22:02:12.963Z,87.33
2019-01-09T22:04:44.760Z,94.60
2019-01-09T22:07:18.357Z,80.87
2019-01-09T22:09:50.482Z,76.17
2019-01-09T22:12:23.991Z,80.47
2019-01-09T22:14:55.854Z,77.40
2019-01-09T22:17:27.613Z,79.37
2019-01-09T22:19:59.468Z,70.20
2019-01-09T22:22:31.189Z,70.87
2019-01-09T22:25:02.994Z,77.53
2019-01-09T22:27:34.602Z,70.30
2019-01-09T22:30:11.032Z,70.37
2019-01-09T22:33:04.719Z,73.20
2019-01-09T22:35:41.615Z,75.20
2019-01-09T22:38:15.144Z,73.67
2019-01-09T22:41:03.568Z,77.17
2019-01-09T22:43:36.934Z,71.27
2019-01-09T22:46:26.086Z,72.53
2019-01-09T22:49:23.614Z,66.03
2019-01-09T22:51:59.523Z,69.67
2019-01-09T22:54:36.163Z,65.40
2019-01-09T22:57:06.326Z,71.03
2019-01-09T22:59:38.043Z,68.20
2019-01-09T23:02:10.843Z,75.57
2019-01-09T23:04:42.548Z,68.33
2019-01-09T23:07:14.249Z,71.23
2019-01-09T23:09:45.917Z,72.67
2019-01-09T23:12:21.438Z,64.93
2019-01-09T23:14:50.965Z,64.77
2019-01-09T23:17:22.770Z,70.77
2019-01-09T23:19:54.452Z,67.67
2019-01-09T23:22:26.252Z,69.07
2019-01-09T23:24:57.955Z,64.73
2019-01-09T23:27:29.647Z,70.20
2019-01-09T23:30:01.295Z,64.87
2019-01-09T23:32:33.264Z,64.83
2019-01-09T23:35:04.949Z,64.23
2019-01-09T23:37:36.608Z,66.87
2019-01-09T23:40:08.871Z,65.17
2019-01-09T23:42:40.684Z,72.07
2019-01-09T23:45:12.367Z,67.53
2019-01-09T23:47:43.988Z,67.33
2019-01-09T23:50:15.620Z,74.60
2019-01-09T23:52:47.274Z,74.80
2019-01-09T23:55:18.933Z,76.00
2019-01-09T23:57:50.628Z,72.33
